Time;durP1;ratioP1;P1;durP2;ratioP2;P2;SDS_P1;SDS_P2;PMS_P1;PMS_P2;Temp;Humidity;BMP_temperature;BMP_pressure;BME280_temperature;BME280_humidity;BME280_pressure;Samples;Min_cycle;Max_cycle;Signal;HPM_P1;HPM_P2
2022/11/03 00:01:15;;;;;;;11.98;5.68;;;;;;;11.16;67.44;100542.09;10210166;28;20051;-63
2022/11/03 00:06:17;;;;;;;9.20;5.43;;;;;;;11.00;68.13;100552.25;10214194;28;20049;-64
2022/11/03 00:11:18;;;;;;;9.13;5.05;;;;;;;10.82;68.88;100539.38;10215112;28;20062;-62
2022/11/03 00:16:20;;;;;;;7.63;4.85;;;;;;;11.03;68.73;100536.00;10212596;28;20051;-63
2022/11/03 00:21:21;;;;;;;9.65;4.43;;;;;;;11.18;67.99;100528.63;10213576;28;20054;-63
2022/11/03 00:26:25;;;;;;;10.75;4.82;;;;;;;11.15;68.04;100529.72;10212068;28;20061;-64
2022/11/03 00:31:28;;;;;;;8.03;4.40;;;;;;;11.07;68.73;100521.50;10216487;28;20043;-63
2022/11/03 00:36:32;;;;;;;9.47;5.07;;;;;;;11.03;68.69;100517.38;10217922;28;20055;-63
2022/11/03 00:41:33;;;;;;;10.83;5.17;;;;;;;10.89;69.28;100503.31;10213823;28;20058;-63
2022/11/03 00:46:35;;;;;;;7.78;4.20;;;;;;;10.83;69.55;100503.78;10224849;28;20066;-63
2022/11/03 00:51:36;;;;;;;7.20;4.50;;;;;;;10.88;69.65;100482.97;10222172;28;20481;-63
2022/11/03 00:56:40;;;;;;;7.47;3.92;;;;;;;10.84;69.24;100478.00;10209932;28;20044;-63
2022/11/03 01:01:43;;;;;;;10.17;4.43;;;;;;;10.70;69.94;100485.25;10208356;28;20054;-63
2022/11/03 01:06:49;;;;;;;7.63;4.93;;;;;;;10.79;69.98;100495.19;10214816;28;20111;-63
2022/11/03 01:12:09;;;;;;;11.32;5.15;;;;;;;10.69;69.94;100485.34;10213307;28;20050;-63
2022/11/03 01:17:24;;;;;;;8.05;4.55;;;;;;;10.56;70.35;100478.31;10212496;28;20043;-63
2022/11/03 01:22:25;;;;;;;10.68;5.40;;;;;;;10.51;70.80;100472.53;10211186;28;20055;-64
2022/11/03 01:27:26;;;;;;;7.93;4.88;;;;;;;10.41;71.04;100463.53;10211521;28;22668;-63
2022/11/03 01:32:28;;;;;;;9.43;5.18;;;;;;;10.44;71.38;100461.47;10372660;28;20056;-63
2022/11/03 01:37:29;;;;;;;12.15;4.90;;;;;;;10.64;70.43;100456.44;10379345;28;20055;-63
2022/11/03 01:42:30;;;;;;;8.38;4.65;;;;;;;10.58;70.75;100463.09;10377983;28;20052;-65
2022/11/03 01:47:34;;;;;;;12.60;5.03;;;;;;;10.74;70.29;100440.59;10376811;28;20057;-64
2022/11/03 01:52:53;;;;;;;10.65;4.47;;;;;;;11.02;70.27;100441.06;10384582;28;20060;-61
2022/11/03 01:58:06;;;;;;;9.77;5.68;;;;;;;11.03;69.58;100432.13;10379385;28;20052;-61
2022/11/03 02:03:08;;;;;;;6.13;4.03;;;;;;;11.10;70.47;100420.84;10378106;28;20045;-61
2022/11/03 02:08:21;;;;;;;8.18;4.20;;;;;;;11.05;68.96;100422.19;10379325;28;20041;-61
2022/11/03 02:13:26;;;;;;;8.18;4.70;;;;;;;10.78;69.68;100415.44;10377785;28;20702;-61
2022/11/03 02:18:32;;;;;;;6.40;3.95;;;;;;;10.76;69.97;100401.38;10378100;28;20061;-65
2022/11/03 02:23:42;;;;;;;11.10;5.85;;;;;;;10.87;71.05;100396.06;10378295;28;20053;-61
2022/11/03 02:28:43;;;;;;;5.85;3.90;;;;;;;10.94;69.64;100386.63;10209761;28;20352;-62
2022/11/03 02:33:57;;;;;;;8.15;4.25;;;;;;;10.94;70.02;100372.44;10208886;28;20581;-62
2022/11/03 02:39:08;;;;;;;8.43;4.22;;;;;;;10.86;70.33;100374.88;10218920;28;20051;-61
2022/11/03 02:44:16;;;;;;;7.03;4.35;;;;;;;10.93;70.29;100366.28;10215542;28;20960;-61
2022/11/03 02:49:17;;;;;;;7.75;3.65;;;;;;;11.04;70.69;100367.25;10214524;28;20070;-61
2022/11/03 02:54:24;;;;;;;4.78;3.63;;;;;;;11.08;69.77;100368.66;10213543;28;20058;-61
2022/11/03 02:59:30;;;;;;;9.82;4.57;;;;;;;10.82;69.71;100347.63;10213084;28;20177;-62
2022/11/03 03:04:39;;;;;;;7.82;4.70;;;;;;;10.78;70.96;100351.53;10210341;28;20424;-61
2022/11/03 03:09:49;;;;;;;5.95;4.55;;;;;;;11.00;71.77;100349.81;10219186;28;20456;-61
2022/11/03 03:14:53;;;;;;;8.85;3.42;;;;;;;11.08;69.97;100350.88;10249849;28;20047;-62
2022/11/03 03:20:06;;;;;;;5.80;3.33;;;;;;;10.99;69.25;100337.44;10254473;28;20150;-61
2022/11/03 03:25:15;;;;;;;6.20;4.10;;;;;;;10.52;70.44;100326.97;10222924;28;20295;-63
2022/11/03 03:30:17;;;;;;;7.25;4.05;;;;;;;10.24;71.76;100316.66;10213394;28;20051;-62
2022/11/03 03:35:23;;;;;;;8.07;4.32;;;;;;;10.27;71.92;100313.75;10211700;28;20509;-61
2022/11/03 03:40:30;;;;;;;7.78;3.80;;;;;;;10.27;71.91;100311.09;10214739;28;20560;-60
2022/11/03 03:45:34;;;;;;;7.88;4.28;;;;;;;10.12;72.49;100311.44;10207835;28;20054;-64
2022/11/03 03:50:37;;;;;;;8.00;3.25;;;;;;;9.97;72.97;100297.50;10210306;28;20046;-61
2022/11/03 03:55:44;;;;;;;9.52;4.47;;;;;;;9.99;73.16;100301.75;10212324;28;20527;-62
2022/11/03 04:00:45;;;;;;;7.63;3.78;;;;;;;10.32;72.25;100301.91;10380206;28;20044;-61
2022/11/03 04:05:47;;;;;;;6.45;4.03;;;;;;;10.38;71.50;100296.13;10383533;28;20123;-62
2022/11/03 04:26:48;;;;;;;6.65;3.50;;;;;;;9.96;74.08;100274.56;10214604;28;20059;-62
2022/11/03 04:31:49;;;;;;;9.50;3.40;;;;;;;10.19;72.72;100270.09;10210544;28;20059;-61
2022/11/03 04:36:50;;;;;;;5.63;3.67;;;;;;;10.00;72.99;100265.38;10214765;28;20047;-61
2022/11/03 04:41:52;;;;;;;7.90;3.67;;;;;;;9.99;73.39;100269.00;10215319;28;20737;-61
2022/11/03 04:46:53;;;;;;;6.53;3.75;;;;;;;9.85;73.38;100262.94;10379372;28;20052;-61
2022/11/03 04:51:54;;;;;;;6.07;3.83;;;;;;;9.73;73.87;100258.56;10392512;28;20052;-61
2022/11/03 04:56:56;;;;;;;6.05;3.28;;;;;;;9.67;74.42;100249.25;10378379;28;20392;-60
2022/11/03 05:01:58;;;;;;;5.30;3.13;;;;;;;9.93;74.35;100248.22;10381290;28;20049;-62
2022/11/03 05:06:59;;;;;;;8.65;3.17;;;;;;;9.98;73.99;100225.59;10378930;28;20415;-61
2022/11/03 05:12:00;;;;;;;7.22;3.85;;;;;;;10.11;72.81;100229.97;10379644;28;20064;-62
2022/11/03 05:17:14;;;;;;;7.25;4.10;;;;;;;9.94;72.74;100223.28;10376094;28;20060;-61
2022/11/03 05:22:19;;;;;;;6.97;3.42;;;;;;;9.68;73.85;100224.38;10381738;28;20615;-62
2022/11/03 05:27:21;;;;;;;8.20;3.97;;;;;;;9.60;74.46;100220.63;10382837;28;20049;-61
2022/11/03 05:32:29;;;;;;;6.57;3.60;;;;;;;9.63;74.48;100209.75;10351852;28;21016;-61
2022/11/03 05:37:32;;;;;;;7.25;4.03;;;;;;;9.67;74.60;100198.75;10211759;28;20544;-62
2022/11/03 05:42:36;;;;;;;4.88;3.30;;;;;;;9.61;74.15;100201.91;10219604;28;20055;-61
2022/11/03 05:47:39;;;;;;;6.68;3.58;;;;;;;9.65;74.24;100187.41;10216368;28;20062;-61
2022/11/03 05:52:42;;;;;;;8.65;4.20;;;;;;;9.61;74.48;100174.44;10212909;28;20547;-62
2022/11/03 05:57:44;;;;;;;9.95;5.45;;;;;;;9.50;75.17;100177.94;10218688;28;20078;-61
2022/11/03 06:02:48;;;;;;;8.32;3.72;;;;;;;9.45;74.89;100174.81;10234925;28;20056;-61
2022/11/03 06:07:53;;;;;;;5.57;3.70;;;;;;;9.40;75.19;100169.84;10239817;28;20066;-65
2022/11/03 06:12:58;;;;;;;9.32;4.82;;;;;;;9.41;75.39;100165.38;10235558;28;20051;-64
2022/11/03 06:18:11;;;;;;;8.52;4.35;;;;;;;9.51;74.82;100150.41;10207749;28;20059;-65
2022/11/03 06:23:16;;;;;;;8.68;4.10;;;;;;;9.44;74.74;100144.72;10209983;28;20051;-63
2022/11/03 06:28:21;;;;;;;9.88;4.10;;;;;;;9.43;74.83;100139.53;10228878;28;20157;-62
2022/11/03 06:33:27;;;;;;;7.85;4.05;;;;;;;9.41;74.86;100144.97;10217300;28;21106;-70
2022/11/03 06:38:30;;;;;;;9.13;4.47;;;;;;;9.45;74.96;100151.72;10188028;28;20050;-65
2022/11/03 06:43:41;;;;;;;7.07;3.70;;;;;;;9.46;75.05;100145.47;10177034;28;20043;-64
2022/11/03 06:48:44;;;;;;;10.07;5.55;;;;;;;9.62;74.60;100139.78;10200615;28;20058;-66
2022/11/03 06:53:46;;;;;;;8.00;3.67;;;;;;;9.72;74.76;100137.25;10191821;28;20058;-63
2022/11/03 06:58:50;;;;;;;9.38;4.03;;;;;;;9.82;73.90;100140.06;10180243;28;20054;-62
2022/11/03 07:03:56;;;;;;;;;;;;;;;9.74;74.44;100137.97;10170765;28;20777;-62
2022/11/03 07:09:00;;;;;;;6.95;3.38;;;;;;;9.81;74.74;100127.72;10182719;28;19922;-62
2022/11/03 07:14:11;;;;;;;7.50;3.78;;;;;;;9.86;74.98;100120.22;10175613;28;20046;-64
2022/11/03 07:19:23;;;;;;;5.38;3.45;;;;;;;10.18;73.52;100120.28;10172009;28;20055;-62
2022/11/03 07:24:31;;;;;;;8.35;3.50;;;;;;;10.15;73.40;100115.22;10196957;28;20054;-63
2022/11/03 07:29:33;;;;;;;8.02;3.92;;;;;;;10.24;73.10;100108.31;10172302;28;20050;-61
2022/11/03 07:34:35;;;;;;;11.05;5.07;;;;;;;10.29;73.15;100092.81;10177638;28;20062;-63
2022/11/03 07:39:37;;;;;;;9.73;4.25;;;;;;;10.35;72.54;100080.88;10192287;28;20054;-65
2022/11/03 07:44:39;;;;;;;8.63;4.18;;;;;;;10.41;72.80;100067.88;10196857;28;20063;-62
2022/11/03 07:49:41;;;;;;;11.70;5.25;;;;;;;10.50;72.11;100057.47;10208020;28;20062;-63
2022/11/03 07:54:43;;;;;;;12.70;4.90;;;;;;;10.59;71.66;100048.69;10194230;28;20057;-63
2022/11/03 07:59:47;;;;;;;7.68;4.35;;;;;;;10.85;71.03;100046.50;10196578;28;20054;-64
2022/11/03 08:04:49;;;;;;;;;;;;;;;10.96;70.47;100029.63;10224088;28;20051;-65
2022/11/03 08:09:51;;;;;;;8.45;5.38;;;;;;;11.03;70.75;100035.25;10235315;28;20037;-64
2022/11/03 08:14:53;;;;;;;8.05;4.35;;;;;;;11.02;69.97;100017.56;10213839;28;20126;-64
2022/11/03 08:19:54;;;;;;;6.57;4.15;;;;;;;11.11;70.47;100011.47;10207296;28;20614;-64
2022/11/03 08:24:56;;;;;;;6.60;3.85;;;;;;;11.09;70.24;99997.44;10202570;28;20126;-62
2022/11/03 08:29:59;;;;;;;6.15;4.18;;;;;;;11.17;70.94;99983.44;10287223;28;20068;-63
2022/11/03 08:35:00;;;;;;;9.65;4.50;;;;;;;11.24;70.83;99984.59;10214274;28;20063;-64
2022/11/03 08:40:03;;;;;;;12.70;4.45;;;;;;;11.40;70.15;99978.78;10274624;28;20978;-65
2022/11/03 08:45:08;;;;;;;8.23;4.88;;;;;;;11.53;69.51;99974.03;10210042;28;20061;-65
2022/11/03 08:50:10;;;;;;;7.47;5.00;;;;;;;11.84;68.73;99972.13;10194474;28;20051;-64
2022/11/03 08:55:11;;;;;;;7.35;4.57;;;;;;;12.18;67.20;99957.56;10188416;28;20047;-61
2022/11/03 09:00:15;;;;;;;8.65;5.13;;;;;;;12.54;66.30;99958.63;10187657;28;20082;-65
2022/11/03 09:05:17;;;;;;;9.63;4.65;;;;;;;12.78;64.94;99943.97;10184601;28;20063;-62
2022/11/03 09:10:19;;;;;;;7.88;5.13;;;;;;;13.40;62.85;99949.63;10186522;28;20958;-63
2022/11/03 09:15:25;;;;;;;8.30;4.57;;;;;;;13.96;61.41;99961.09;10178960;28;20844;-63
2022/11/03 09:20:26;;;;;;;7.35;4.32;;;;;;;14.62;59.11;99960.81;10176936;28;20051;-63
2022/11/03 09:25:28;;;;;;;6.95;4.18;;;;;;;14.82;58.25;99972.19;10180296;28;20085;-65
2022/11/03 09:30:29;;;;;;;6.90;4.32;;;;;;;14.78;58.20;99960.91;10181379;28;22267;-64
2022/11/03 09:35:31;;;;;;;6.65;3.50;;;;;;;14.61;58.26;99932.38;10178371;28;20196;-65
2022/11/03 09:40:34;;;;;;;7.78;3.63;;;;;;;15.54;55.85;99923.56;10185404;28;20528;-67
2022/11/03 09:45:37;;;;;;;7.20;4.23;;;;;;;16.40;53.08;99905.34;10186324;28;20070;-65
2022/11/03 09:50:39;;;;;;;9.38;4.20;;;;;;;16.96;50.89;99900.03;10186492;28;21249;-66
2022/11/03 09:55:40;;;;;;;11.18;4.15;;;;;;;17.30;50.22;99896.19;10180974;28;20063;-66
2022/11/03 10:00:42;;;;;;;5.93;3.55;;;;;;;16.98;51.10;99889.09;10180419;28;20055;-64
2022/11/03 10:05:44;;;;;;;11.43;3.58;;;;;;;16.48;52.57;99881.16;10171805;28;20058;-64
2022/11/03 10:10:45;;;;;;;12.75;4.80;;;;;;;16.24;53.29;99869.47;10221628;23;20056;-63
2022/11/03 10:15:47;;;;;;;6.35;4.30;;;;;;;16.39;53.19;99858.00;10358140;28;20897;-64
2022/11/03 10:20:48;;;;;;;10.65;4.53;;;;;;;18.33;49.24;99841.09;10354083;28;20053;-63
2022/11/03 10:25:50;;;;;;;6.75;3.92;;;;;;;20.40;44.68;99826.34;10354676;28;20060;-64
2022/11/03 10:30:55;;;;;;;6.43;4.30;;;;;;;21.59;42.40;99810.81;10350887;28;21605;-63
2022/11/03 10:36:14;;;;;;;5.78;3.78;;;;;;;21.58;40.31;99787.47;10354804;28;20065;-64
2022/11/03 10:41:24;;;;;;;6.82;3.40;;;;;;;19.36;45.20;99754.00;10348867;28;20052;-63
2022/11/03 10:46:26;;;;;;;7.20;3.85;;;;;;;18.32;48.27;99753.19;10349765;28;20049;-62
2022/11/03 10:51:51;;;;;;;8.45;3.67;;;;;;;19.69;46.21;99746.19;10346934;28;20068;-61
2022/11/03 10:56:52;;;;;;;7.68;4.28;;;;;;;20.37;44.07;99742.97;10340305;28;20051;-61
2022/11/03 11:01:54;;;;;;;5.95;4.07;;;;;;;18.65;47.56;99758.19;10343513;28;20057;-64
2022/11/03 11:06:55;;;;;;;8.45;3.10;;;;;;;17.40;50.41;99748.00;10337181;28;20048;-62
2022/11/03 11:11:57;;;;;;;7.25;3.17;;;;;;;16.64;53.66;99737.06;10356409;28;20413;-64
2022/11/03 11:17:00;;;;;;;5.95;3.13;;;;;;;16.31;54.40;99699.59;10358446;28;20168;-64
2022/11/03 11:22:12;;;;;;;5.72;2.85;;;;;;;16.22;55.10;99699.59;10354890;28;20048;-66
2022/11/03 11:27:30;;;;;;;6.43;3.20;;;;;;;16.11;55.96;99681.22;10361798;28;20091;-65
2022/11/03 11:32:41;;;;;;;4.57;2.70;;;;;;;15.90;56.51;99681.78;10360459;28;20053;-67
2022/11/03 11:37:43;;;;;;;8.85;2.60;;;;;;;16.04;56.46;99673.00;10360230;28;20052;-64
2022/11/03 11:43:09;;;;;;;5.28;2.95;;;;;;;16.04;56.55;99648.00;10350104;28;20570;-63
2022/11/03 11:48:17;;;;;;;3.95;2.40;;;;;;;15.79;57.74;99636.50;10354685;28;20178;-65
2022/11/03 11:53:21;;;;;;;6.75;2.58;;;;;;;15.49;58.10;99626.34;10355295;28;20073;-65
2022/11/03 11:58:32;;;;;;;8.15;2.95;;;;;;;15.35;58.80;99635.06;10360461;28;20058;-64
2022/11/03 12:03:40;;;;;;;;;;;;;;;15.34;59.20;99636.06;10355033;28;20143;-64
2022/11/03 12:08:42;;;;;;;8.45;2.70;;;;;;;15.13;59.88;99637.44;10347224;28;20012;-64
2022/11/03 12:13:49;;;;;;;4.40;2.25;;;;;;;14.96;60.63;99622.34;10357267;28;20057;-63
2022/11/03 12:18:51;;;;;;;6.22;2.17;;;;;;;15.06;60.50;99617.69;10358294;28;20041;-64
2022/11/03 12:23:53;;;;;;;5.65;2.10;;;;;;;14.99;60.60;99617.50;10357654;28;20063;-62
2022/11/03 12:28:54;;;;;;;4.65;2.10;;;;;;;15.11;60.25;99591.19;10356652;28;20053;-63
2022/11/03 12:33:55;;;;;;;3.38;1.83;;;;;;;15.31;60.26;99580.09;10358436;28;20057;-65
2022/11/03 12:38:57;;;;;;;4.70;1.95;;;;;;;15.26;59.77;99571.75;10354766;28;20133;-63
2022/11/03 12:43:58;;;;;;;4.82;2.20;;;;;;;15.14;60.68;99553.31;10359012;28;20510;-64
2022/11/03 12:49:00;;;;;;;6.63;2.20;;;;;;;15.09;60.14;99528.88;10357831;28;20064;-66
2022/11/03 12:54:01;;;;;;;7.13;2.15;;;;;;;15.14;60.33;99526.50;10356145;28;20064;-64
2022/11/03 12:59:02;;;;;;;3.10;1.67;;;;;;;15.09;60.45;99514.66;10359415;28;20364;-63
2022/11/03 13:04:05;;;;;;;5.47;2.17;;;;;;;15.06;60.92;99517.66;10350991;28;20338;-64
2022/11/03 13:09:06;;;;;;;4.95;2.00;;;;;;;15.10;61.19;99509.13;10348184;28;20060;-65
2022/11/03 13:14:07;;;;;;;5.63;2.35;;;;;;;15.15;61.06;99500.56;10352849;28;20050;-63
2022/11/03 13:19:09;;;;;;;5.13;2.08;;;;;;;15.03;61.86;99487.50;10357302;28;20669;-62
2022/11/03 13:24:11;;;;;;;5.95;2.20;;;;;;;14.90;62.09;99465.78;10363456;28;20049;-63
2022/11/03 13:29:12;;;;;;;5.47;1.88;;;;;;;15.01;62.17;99451.16;10358576;28;20503;-63
2022/11/03 13:34:13;;;;;;;7.70;2.78;;;;;;;15.07;62.06;99444.28;10356989;28;20045;-64
2022/11/03 13:39:15;;;;;;;3.58;2.25;;;;;;;15.06;62.25;99438.09;10355158;28;20053;-63
2022/11/03 13:44:16;;;;;;;6.85;2.28;;;;;;;14.94;62.91;99418.88;10354114;28;20680;-63
2022/11/03 13:49:20;;;;;;;4.32;2.35;;;;;;;14.79;62.97;99405.34;10353049;28;20053;-65
2022/11/03 13:54:41;;;;;;;6.47;2.53;;;;;;;14.64;63.83;99397.19;10349726;28;20159;-63
2022/11/03 14:00:06;;;;;;;5.63;2.28;;;;;;;14.54;64.39;99393.00;10359535;28;20646;-64
2022/11/03 14:05:09;;;;;;;3.05;2.40;;;;;;;14.56;64.75;99397.19;10353373;28;20072;-62
2022/11/03 14:10:12;;;;;;;5.80;2.38;;;;;;;14.57;65.07;99390.78;10349393;28;20090;-63
2022/11/03 14:15:13;;;;;;;3.80;2.33;;;;;;;14.57;64.90;99373.91;10353516;28;20049;-64
2022/11/03 14:20:14;;;;;;;6.28;3.08;;;;;;;14.56;65.15;99361.50;10357902;28;20072;-64
2022/11/03 14:25:18;;;;;;;4.95;2.63;;;;;;;14.59;65.14;99345.94;10358366;28;20134;-64
2022/11/03 14:30:20;;;;;;;5.43;2.65;;;;;;;14.59;65.31;99324.53;10349861;28;20045;-62
2022/11/03 14:35:22;;;;;;;6.00;2.50;;;;;;;14.56;65.31;99329.38;10348408;28;20056;-65
2022/11/03 14:45:44;;;;;;;7.32;2.70;;;;;;;14.43;66.02;99279.06;10349591;28;20044;-65
2022/11/03 14:50:45;;;;;;;7.32;3.63;;;;;;;14.43;66.18;99285.25;10354059;28;20073;-66
2022/11/03 14:55:46;;;;;;;5.72;2.60;;;;;;;14.33;66.23;99276.56;10355111;28;20056;-63
2022/11/03 15:00:48;;;;;;;7.03;2.67;;;;;;;14.29;66.50;99289.47;10343733;28;21792;-65
2022/11/03 15:05:53;;;;;;;4.82;2.50;;;;;;;14.28;66.96;99286.97;10350750;28;20503;-66
2022/11/03 15:10:54;;;;;;;8.38;3.55;;;;;;;14.24;66.94;99275.75;10342415;28;20057;-67
2022/11/03 15:15:56;;;;;;;8.48;3.20;;;;;;;14.20;67.04;99265.56;10351825;28;20049;-64
2022/11/03 15:20:58;;;;;;;8.30;3.15;;;;;;;14.18;66.93;99262.22;10358029;28;20166;-64
2022/11/03 15:26:00;;;;;;;4.65;2.40;;;;;;;14.08;67.13;99247.19;10352720;28;20106;-63
2022/11/03 15:31:03;;;;;;;4.40;2.50;;;;;;;14.07;67.47;99244.69;10345305;28;20878;-64
2022/11/03 15:36:06;;;;;;;5.95;3.10;;;;;;;14.00;67.59;99217.78;10354101;28;20051;-64
2022/11/03 15:41:18;;;;;;;6.45;2.33;;;;;;;14.00;68.13;99230.31;10364144;28;20079;-66
2022/11/03 15:46:20;;;;;;;4.43;2.20;;;;;;;13.92;67.92;99209.78;10359233;28;20060;-65
2022/11/03 15:51:21;;;;;;;3.65;2.53;;;;;;;13.93;68.33;99209.59;10360283;28;20049;-64
2022/11/03 15:56:22;;;;;;;4.70;2.22;;;;;;;13.90;68.28;99201.91;10371624;28;20473;-64
2022/11/03 16:01:24;;;;;;;7.15;3.03;;;;;;;13.85;68.59;99195.41;10359866;28;20071;-63
2022/11/03 16:06:25;;;;;;;8.60;3.45;;;;;;;13.83;68.76;99184.06;10354571;28;20045;-67
2022/11/03 16:11:47;;;;;;;5.25;2.47;;;;;;;13.89;69.01;99164.66;10351402;28;20056;-68
2022/11/03 16:16:48;;;;;;;6.10;2.75;;;;;;;13.88;69.28;99166.47;10352852;28;20048;-63
2022/11/03 16:21:50;;;;;;;4.97;3.33;;;;;;;13.93;69.08;99152.56;10354725;28;20057;-65
2022/11/03 16:26:51;;;;;;;3.85;3.20;;;;;;;13.92;68.74;99146.41;10355580;28;20057;-65
2022/11/03 16:31:53;;;;;;;5.25;3.47;;;;;;;13.90;68.71;99137.72;10361945;28;20154;-66
2022/11/03 16:36:55;;;;;;;4.68;2.63;;;;;;;13.87;69.27;99137.22;10358777;28;20080;-66
2022/11/03 16:41:56;;;;;;;5.68;3.25;;;;;;;13.82;69.78;99123.53;10388129;28;20057;-64
2022/11/03 16:46:57;;;;;;;7.25;4.07;;;;;;;13.77;69.95;99122.19;10388780;28;20041;-66
2022/11/03 16:51:59;;;;;;;5.55;3.00;;;;;;;13.75;70.26;99113.53;10380395;28;20068;-67
2022/11/03 16:57:00;;;;;;;6.15;3.42;;;;;;;13.83;70.74;99119.88;10363975;28;20049;-66
2022/11/03 17:02:02;;;;;;;8.38;3.70;;;;;;;13.82;70.92;99112.84;10358362;28;20255;-66
2022/11/03 17:07:03;;;;;;;4.97;3.35;;;;;;;13.85;70.73;99112.50;10377081;28;20052;-66
2022/11/03 17:12:05;;;;;;;4.40;2.97;;;;;;;13.93;71.37;99115.13;10374664;28;20056;-65
2022/11/03 17:17:06;;;;;;;7.18;3.83;;;;;;;13.91;71.87;99098.41;10370181;28;20041;-65
2022/11/03 17:22:08;;;;;;;7.20;4.10;;;;;;;13.91;72.53;99101.09;10352075;28;20053;-64
2022/11/03 17:27:13;;;;;;;5.38;3.95;;;;;;;13.83;73.35;99099.28;10350662;28;20064;-66
2022/11/03 17:32:23;;;;;;;6.35;4.28;;;;;;;13.75;72.53;99084.09;10351255;28;20057;-65
2022/11/03 17:37:25;;;;;;;8.38;4.13;;;;;;;13.67;72.36;99061.91;10353558;28;20037;-64
2022/11/03 17:42:27;;;;;;;6.28;4.47;;;;;;;13.61;72.90;99058.91;10355334;28;20076;-65
2022/11/03 17:47:30;;;;;;;6.57;4.65;;;;;;;13.60;73.62;99024.31;10347411;28;20053;-66
2022/11/03 17:52:32;;;;;;;6.70;4.80;;;;;;;13.55;73.82;99016.81;10354832;28;20136;-66
2022/11/03 17:57:34;;;;;;;13.57;4.70;;;;;;;13.51;74.38;99017.34;10363490;28;20052;-65
2022/11/03 18:02:38;;;;;;;4.65;4.15;;;;;;;13.47;74.09;99010.69;10351140;28;20068;-70
2022/11/03 18:07:41;;;;;;;6.00;4.20;;;;;;;13.54;74.29;99008.97;10353962;28;20090;-68
2022/11/03 18:18:12;;;;;;;9.18;5.95;;;;;;;13.39;75.38;98980.31;10351365;28;20555;-68
2022/11/03 18:23:20;;;;;;;7.13;4.50;;;;;;;13.42;75.76;98976.44;10341001;28;20052;-68
2022/11/03 18:28:21;;;;;;;8.55;5.57;;;;;;;13.41;75.89;98962.25;10354405;28;20045;-69
2022/11/03 18:33:25;;;;;;;8.57;6.15;;;;;;;13.53;75.96;98951.19;10353593;28;20041;-68
2022/11/03 18:38:27;;;;;;;10.77;6.22;;;;;;;13.57;76.18;98950.66;10360069;28;20514;-70
2022/11/03 18:43:28;;;;;;;7.20;5.25;;;;;;;13.52;76.07;98938.81;10358329;28;20076;-68
2022/11/03 18:48:30;;;;;;;4.82;4.13;;;;;;;13.52;75.90;98934.28;10351887;28;20072;-66
2022/11/03 18:53:32;;;;;;;6.30;4.85;;;;;;;13.54;76.30;98939.47;10353068;28;20057;-68
2022/11/03 18:58:34;;;;;;;8.32;4.90;;;;;;;13.44;76.78;98940.50;10349718;28;20072;-63
2022/11/03 19:03:35;;;;;;;5.95;4.80;;;;;;;13.39;77.18;98979.44;10361063;28;20084;-63
2022/11/03 19:08:37;;;;;;;6.40;5.55;;;;;;;13.18;78.21;99004.03;10359133;28;20060;-62
2022/11/03 19:13:43;;;;;;;5.30;4.53;;;;;;;13.07;80.02;98974.00;10355826;28;20057;-62
2022/11/03 19:18:44;;;;;;;8.00;4.45;;;;;;;13.07;80.69;98965.16;10369642;28;21018;-62
2022/11/03 19:23:47;;;;;;;6.03;4.05;;;;;;;12.98;81.44;99000.91;10394909;28;20057;-62
2022/11/03 19:28:58;;;;;;;5.72;3.75;;;;;;;12.87;83.15;98967.38;10383284;28;20068;-62
2022/11/03 19:34:01;;;;;;;7.93;4.85;;;;;;;12.96;83.62;98953.00;10377563;28;20144;-62
2022/11/03 19:39:13;;;;;;;8.10;5.13;;;;;;;13.05;83.59;98935.94;10368616;28;20060;-61
2022/11/03 19:44:14;;;;;;;7.30;4.70;;;;;;;13.15;85.16;98924.22;10367421;28;20061;-61
2022/11/03 19:49:16;;;;;;;9.18;4.68;;;;;;;13.23;84.16;98910.84;10364931;28;20055;-62
2022/11/03 19:54:20;;;;;;;6.05;4.00;;;;;;;13.25;83.60;98906.16;10363829;28;20298;-62
2022/11/03 19:59:21;;;;;;;8.35;5.82;;;;;;;13.29;84.27;98910.16;10361292;28;20053;-62
2022/11/03 20:04:22;;;;;;;7.75;6.00;;;;;;;13.19;83.74;98906.84;10361540;28;20064;-62
2022/11/03 20:09:26;;;;;;;6.72;5.72;;;;;;;13.07;85.22;98907.22;10357379;28;20061;-62
2022/11/03 20:14:28;;;;;;;;;;;;;;;13.06;85.60;98916.25;10363544;28;20131;-63
2022/11/03 20:19:29;;;;;;;8.43;5.65;;;;;;;12.95;86.69;98907.78;10359717;28;19930;-61
2022/11/03 20:24:31;;;;;;;9.10;6.30;;;;;;;12.87;87.78;98900.63;10365342;28;20501;-61
2022/11/03 20:29:32;;;;;;;5.60;5.00;;;;;;;12.78;88.67;98896.31;10359860;28;20049;-62
2022/11/03 20:34:35;;;;;;;6.15;4.75;;;;;;;12.75;88.86;98896.66;10358713;28;20049;-61
2022/11/03 20:39:37;;;;;;;7.95;5.72;;;;;;;12.71;89.26;98888.97;10362195;28;20056;-61
2022/11/03 20:44:38;;;;;;;6.70;5.18;;;;;;;12.67;89.39;98879.66;10371386;28;20335;-62
2022/11/03 20:49:40;;;;;;;5.78;5.18;;;;;;;12.62;89.87;98862.47;10375011;28;20060;-64
2022/11/03 20:54:45;;;;;;;7.63;5.55;;;;;;;12.63;90.19;98859.63;10379336;28;20041;-62
2022/11/03 20:59:46;;;;;;;7.10;5.78;;;;;;;12.60;90.39;98853.81;10379744;28;20084;-61
2022/11/03 21:04:47;;;;;;;7.57;6.28;;;;;;;12.59;90.51;98844.94;10385333;28;20139;-63
2022/11/03 21:09:49;;;;;;;7.50;4.65;;;;;;;12.53;90.78;98837.63;10373086;28;20048;-62
2022/11/03 21:20:10;;;;;;;7.50;5.30;;;;;;;12.54;91.79;98815.28;10417730;28;20100;-61
2022/11/03 21:25:14;;;;;;;8.38;4.63;;;;;;;12.53;92.22;98808.28;10418011;28;20211;-61
2022/11/03 21:30:16;;;;;;;7.47;4.55;;;;;;;12.46;92.31;98826.81;10391527;28;20072;-61
2022/11/03 21:35:20;;;;;;;6.47;4.32;;;;;;;12.55;92.56;98822.31;10377957;28;20053;-62
2022/11/03 21:40:22;;;;;;;8.00;4.55;;;;;;;12.60;92.53;98835.94;10391247;28;20041;-61
2022/11/03 21:45:23;;;;;;;6.50;4.72;;;;;;;12.62;92.72;98844.63;10367867;28;20042;-62
2022/11/03 21:50:25;;;;;;;5.20;4.70;;;;;;;12.56;93.17;98850.63;10375180;28;20498;-61
2022/11/03 21:55:27;;;;;;;5.38;4.85;;;;;;;12.58;93.66;98850.47;10378320;28;20048;-61
2022/11/03 22:00:29;;;;;;;5.53;4.95;;;;;;;12.60;93.93;98846.63;10380379;28;21051;-61
2022/11/03 22:05:31;;;;;;;4.43;3.55;;;;;;;12.60;94.91;98835.94;10376718;28;20282;-63
2022/11/03 22:10:32;;;;;;;7.32;4.40;;;;;;;12.59;95.36;98826.28;10379556;22;20171;-62
2022/11/03 22:31:39;;;;;;;6.10;4.47;;;;;;;12.55;97.82;98870.34;10373677;28;20052;-63
2022/11/03 22:36:40;;;;;;;5.35;4.85;;;;;;;12.53;98.37;98872.34;10370315;28;20188;-61
2022/11/03 22:47:06;;;;;;;8.38;6.50;;;;;;;12.37;100.00;98858.03;10404162;28;20061;-61
2022/11/03 22:52:09;;;;;;;6.25;5.40;;;;;;;12.37;100.00;98884.72;10425597;28;20751;-62
2022/11/03 22:57:11;;;;;;;7.78;5.72;;;;;;;12.29;100.00;98887.38;10389371;28;20049;-63
2022/11/03 23:02:13;;;;;;;7.10;6.32;;;;;;;12.26;100.00;98881.53;10365829;28;20044;-62
2022/11/03 23:07:14;;;;;;;6.63;5.88;;;;;;;12.14;100.00;98889.03;10371893;28;20045;-62
2022/11/03 23:12:16;;;;;;;8.15;6.30;;;;;;;12.20;100.00;98893.72;10370437;28;20053;-62
2022/11/03 23:17:17;;;;;;;7.45;6.22;;;;;;;12.09;100.00;98904.72;10368187;28;20053;-63
2022/11/03 23:22:18;;;;;;;5.97;5.38;;;;;;;12.10;100.00;98925.06;10369067;28;20049;-63
2022/11/03 23:27:19;;;;;;;6.30;5.70;;;;;;;12.08;100.00;98925.22;10369674;28;20037;-62
2022/11/03 23:32:21;;;;;;;7.03;4.97;;;;;;;12.08;100.00;98924.41;10373075;28;20042;-62
2022/11/03 23:37:22;;;;;;;6.95;5.40;;;;;;;12.05;100.00;98935.41;10377759;28;20643;-61
2022/11/03 23:42:23;;;;;;;7.88;5.25;;;;;;;11.96;100.00;98932.69;10381172;28;20049;-63
2022/11/03 23:52:45;;;;;;;5.68;5.07;;;;;;;11.95;100.00;98949.72;10365026;28;20049;-62
